Time;durP1;ratioP1;P1;durP2;ratioP2;P2;SDS_P1;SDS_P2;PMS_P1;PMS_P2;Temp;Humidity;BMP_temperature;BMP_pressure;BME280_temperature;BME280_humidity;BME280_pressure;Samples;Min_cycle;Max_cycle;Signal;HPM_P1;HPM_P2
2022/01/21 00:02:23;;;;;;;3.25;1.17;;;;;;;-2.72;100.00;96169.00;5132405;27;20382;-66
2022/01/21 00:04:57;;;;;;;4.75;0.93;;;;;;;-2.74;100.00;96168.31;5124618;27;20126;-66
2022/01/21 00:07:22;;;;;;;5.35;1.05;;;;;;;-2.70;100.00;96174.94;5110537;28;20016;-66
2022/01/21 00:09:50;;;;;;;3.63;0.82;;;;;;;-2.66;100.00;96173.63;5106387;28;20038;-66
2022/01/21 00:12:15;;;;;;;1.35;0.73;;;;;;;-2.65;100.00;96170.03;5119515;27;20027;-66
2022/01/21 00:14:43;;;;;;;2.80;1.15;;;;;;;-2.64;100.00;96182.16;5111973;27;20466;-66
2022/01/21 00:17:08;;;;;;;1.85;0.75;;;;;;;-2.65;100.00;96177.88;5115601;27;20026;-66
2022/01/21 00:19:41;;;;;;;3.45;1.10;;;;;;;-2.66;100.00;96174.44;5132340;27;20477;-67
2022/01/21 00:30:09;;;;;;;4.50;1.23;;;;;;;-2.66;100.00;96178.88;5151372;27;20034;-66
2022/01/21 00:30:27;;;;;;;5.40;0.95;;;;;;;-2.64;100.00;96174.28;5143064;27;20407;-67
2022/01/21 00:32:55;;;;;;;7.68;0.85;;;;;;;-2.59;100.00;96174.66;5138702;27;20030;-66
2022/01/21 00:35:23;;;;;;;3.08;0.73;;;;;;;-2.60;100.00;96170.38;5122656;27;20020;-66
2022/01/21 00:37:50;;;;;;;2.65;0.90;;;;;;;-2.58;100.00;96183.34;5151178;27;20023;-66
2022/01/21 00:40:21;;;;;;;3.10;0.77;;;;;;;-2.56;100.00;96178.75;5145439;27;20200;-66
2022/01/21 00:45:49;;;;;;;3.20;0.77;;;;;;;-2.54;100.00;96166.31;5121885;27;20121;-67
2022/01/21 00:48:15;;;;;;;2.15;0.80;;;;;;;-2.51;100.00;96173.84;5135486;27;20031;-66
2022/01/21 00:51:03;;;;;;;5.45;0.80;;;;;;;-2.49;100.00;96167.50;5134357;27;20033;-65
2022/01/21 00:53:28;;;;;;;2.60;0.95;;;;;;;-2.49;100.00;96177.16;5134678;27;20481;-66
2022/01/21 00:55:53;;;;;;;4.72;0.93;;;;;;;-2.50;100.00;96178.13;5150578;27;20042;-65
2022/01/21 00:58:45;;;;;;;4.25;0.90;;;;;;;-2.52;100.00;96180.91;5147728;27;20429;-65
2022/01/21 01:01:12;;;;;;;1.77;0.80;;;;;;;-2.53;100.00;96168.75;5146619;27;20483;-65
2022/01/21 01:03:38;;;;;;;3.80;0.77;;;;;;;-2.55;100.00;96164.66;5151010;27;20086;-66
2022/01/21 01:06:05;;;;;;;2.83;0.82;;;;;;;-2.55;100.00;96162.84;5147025;27;20448;-65
2022/01/21 01:08:31;;;;;;;1.80;0.80;;;;;;;-2.56;100.00;96168.25;5151928;27;20380;-65
2022/01/21 01:22:04;;;;;;;2.72;1.02;;;;;;;-2.66;100.00;96160.50;5157503;27;20118;-65
2022/01/21 01:30:09;;;;;;;2.55;1.13;;;;;;;-2.64;100.00;96166.41;5142646;27;20477;-65
2022/01/21 01:32:35;;;;;;;2.50;0.90;;;;;;;-2.65;100.00;96173.47;5150899;27;20409;-65
2022/01/21 01:35:03;;;;;;;3.85;1.10;;;;;;;-2.62;100.00;96177.56;5132741;27;20020;-65
2022/01/21 01:50:52;;;;;;;4.20;1.27;;;;;;;-2.49;100.00;96170.13;5142079;27;20159;-64
2022/01/21 01:53:32;;;;;;;4.28;0.88;;;;;;;-2.46;100.00;96172.41;5133215;27;20034;-64
2022/01/21 01:55:59;;;;;;;2.53;0.98;;;;;;;-2.43;100.00;96166.84;5151285;27;20474;-64
2022/01/21 01:58:26;;;;;;;3.45;0.98;;;;;;;-2.42;100.00;96173.72;5142419;27;20510;-64
2022/01/21 02:00:56;;;;;;;3.55;1.15;;;;;;;-2.41;100.00;96170.13;5134669;27;20149;-64
2022/01/21 02:03:23;;;;;;;4.30;0.90;;;;;;;-2.43;100.00;96179.97;5151192;27;20091;-64
2022/01/21 02:05:56;;;;;;;3.33;1.10;;;;;;;-2.44;100.00;96188.00;5147372;27;20038;-64
2022/01/21 02:08:21;;;;;;;;;;;;;;;-2.46;100.00;96172.41;5152218;27;20022;-64
2022/01/21 02:10:49;;;;;;;2.50;0.82;;;;;;;-2.46;100.00;96169.78;5138133;27;20385;-64
2022/01/21 02:13:24;;;;;;;2.85;1.02;;;;;;;-2.47;100.00;96170.78;5126398;27;20042;-64
2022/01/21 02:22:03;;;;;;;2.38;0.98;;;;;;;-2.52;100.00;96178.28;5090355;28;20045;-64
2022/01/21 02:24:46;;;;;;;4.07;1.42;;;;;;;-2.51;100.00;96177.28;5090390;28;20039;-64
2022/01/21 02:27:11;;;;;;;;;;;;;;;-2.52;100.00;96180.06;5091298;28;20107;-64
2022/01/21 02:29:45;;;;;;;1.85;0.93;;;;;;;-2.52;100.00;96185.31;5088436;28;20464;-64
2022/01/21 02:32:16;;;;;;;4.47;1.45;;;;;;;-2.53;100.00;96188.94;5091263;28;20035;-64
2022/01/21 02:34:45;;;;;;;4.45;1.35;;;;;;;-2.53;100.00;96186.31;5085086;28;20032;-64
2022/01/21 02:37:15;;;;;;;4.25;1.27;;;;;;;-2.52;100.00;96191.38;5090603;28;20376;-64
2022/01/21 02:39:44;;;;;;;5.18;1.40;;;;;;;-2.47;100.00;96186.50;5090994;28;20120;-64
2022/01/21 02:42:10;;;;;;;3.22;1.10;;;;;;;-2.44;100.00;96174.88;5089846;28;20024;-64
2022/01/21 02:44:43;;;;;;;2.25;1.05;;;;;;;-2.37;100.00;96173.28;5074249;28;20036;-63
2022/01/21 02:47:14;;;;;;;3.92;1.60;;;;;;;-2.34;100.00;96173.78;5088855;28;20032;-63
2022/01/21 02:49:39;;;;;;;6.07;1.55;;;;;;;-2.26;100.00;96172.16;5111937;27;20043;-63
2022/01/21 02:52:07;;;;;;;3.40;1.30;;;;;;;-2.19;100.00;96171.34;5154609;27;20025;-64
2022/01/21 02:54:34;;;;;;;3.33;1.40;;;;;;;-2.16;100.00;96172.84;5149129;27;20197;-64
2022/01/21 02:57:00;;;;;;;5.82;1.83;;;;;;;-2.14;100.00;96169.09;5154350;27;20067;-63
2022/01/21 02:59:31;;;;;;;6.10;1.55;;;;;;;-2.13;100.00;96162.84;5136586;27;20438;-63
2022/01/21 03:01:58;;;;;;;4.05;1.88;;;;;;;-2.12;100.00;96167.13;5153446;27;20030;-63
2022/01/21 03:04:34;;;;;;;6.47;1.90;;;;;;;-2.12;100.00;96172.38;5150425;27;20054;-63
2022/01/21 03:07:00;;;;;;;5.13;1.80;;;;;;;-2.12;100.00;96164.50;5146581;27;20069;-63
2022/01/21 03:09:33;;;;;;;5.57;1.25;;;;;;;-2.16;100.00;96160.56;5153248;27;20486;-63
2022/01/21 03:12:01;;;;;;;5.70;1.55;;;;;;;-2.19;100.00;96162.66;5150472;27;20542;-63
2022/01/21 03:14:26;;;;;;;7.03;1.80;;;;;;;-2.22;100.00;96160.34;5154332;27;20054;-61
2022/01/21 03:16:52;;;;;;;5.07;1.42;;;;;;;-2.20;100.00;96168.88;5145121;27;20435;-63
2022/01/21 03:19:17;;;;;;;4.78;1.50;;;;;;;-2.19;100.00;96168.72;5128305;27;20405;-63
2022/01/21 03:21:46;;;;;;;6.07;1.45;;;;;;;-2.17;100.00;96168.56;5153011;27;20034;-63
2022/01/21 03:24:17;;;;;;;4.20;1.38;;;;;;;-2.18;100.00;96172.16;5141940;27;20023;-63
2022/01/21 03:26:43;;;;;;;5.70;1.38;;;;;;;-2.22;100.00;96174.31;5153763;27;20030;-63
2022/01/21 03:29:09;;;;;;;4.78;1.42;;;;;;;-2.28;100.00;96180.19;5148423;27;20026;-63
2022/01/21 03:31:34;;;;;;;7.97;1.83;;;;;;;-2.29;100.00;96175.09;5154015;27;20534;-63
2022/01/21 03:34:05;;;;;;;8.13;1.58;;;;;;;-2.28;100.00;96176.72;5153647;27;20030;-63
2022/01/21 03:36:40;;;;;;;3.47;1.50;;;;;;;-2.31;100.00;96187.53;5148199;27;20461;-63
2022/01/21 03:39:07;;;;;;;3.28;1.58;;;;;;;-2.36;100.00;96186.22;5135545;27;20388;-62
2022/01/21 03:41:33;;;;;;;3.15;1.30;;;;;;;-2.41;100.00;96185.88;5131838;27;20050;-62
2022/01/21 03:44:02;;;;;;;3.00;1.20;;;;;;;-2.44;100.00;96182.75;5152573;27;20030;-62
2022/01/21 03:46:27;;;;;;;4.68;1.60;;;;;;;-2.47;100.00;96188.31;5148664;27;20031;-63
2022/01/21 03:48:55;;;;;;;6.45;1.63;;;;;;;-2.47;100.00;96189.13;5132965;27;20371;-63
2022/01/21 03:51:35;;;;;;;5.60;1.30;;;;;;;-2.49;100.00;96183.22;5133155;27;20122;-63
2022/01/21 03:56:56;;;;;;;5.22;1.30;;;;;;;-2.57;100.00;96191.06;5111849;28;20031;-63
2022/01/21 03:59:28;;;;;;;5.30;1.42;;;;;;;-2.62;100.00;96196.75;5110384;27;20039;-63
2022/01/21 04:01:53;;;;;;;7.75;1.92;;;;;;;-2.66;100.00;96194.59;5112323;28;20066;-63
2022/01/21 04:04:21;;;;;;;4.65;1.05;;;;;;;-2.69;100.00;96189.69;5110057;27;20071;-63
2022/01/21 04:06:46;;;;;;;3.00;1.75;;;;;;;-2.75;100.00;96191.09;5111828;28;20062;-63
2022/01/21 04:09:15;;;;;;;3.10;1.38;;;;;;;-2.77;100.00;96179.97;5110851;28;20070;-63
2022/01/21 04:11:41;;;;;;;3.53;1.40;;;;;;;-2.78;100.00;96190.59;5110209;28;20024;-63
2022/01/21 04:14:24;;;;;;;2.10;1.10;;;;;;;-2.81;100.00;96186.50;5111009;28;20138;-62
2022/01/21 04:16:49;;;;;;;4.15;1.58;;;;;;;-2.84;100.00;96186.78;5110863;27;20016;-63
2022/01/21 04:19:17;;;;;;;5.03;1.30;;;;;;;-2.88;100.00;96195.13;5130723;27;20023;-62
2022/01/21 04:21:45;;;;;;;4.45;1.63;;;;;;;-2.92;100.00;96189.38;5132436;27;20030;-63
2022/01/21 04:24:20;;;;;;;3.42;1.25;;;;;;;-2.97;100.00;96191.63;5120678;27;20110;-61
2022/01/21 04:26:54;;;;;;;4.47;1.77;;;;;;;-3.01;100.00;96185.88;5131983;27;20027;-59
2022/01/21 04:29:19;;;;;;;3.38;1.35;;;;;;;-3.08;100.00;96184.84;5129600;27;20023;-63
2022/01/21 04:31:47;;;;;;;6.50;1.45;;;;;;;-3.16;100.00;96190.00;5132447;27;20068;-61
2022/01/21 04:34:13;;;;;;;1.60;1.10;;;;;;;-3.19;100.00;96192.94;5129619;27;20079;-63
2022/01/21 04:36:42;;;;;;;5.70;1.33;;;;;;;-3.21;100.00;96190.50;5110055;28;20035;-62
2022/01/21 04:39:18;;;;;;;4.60;1.40;;;;;;;-3.24;100.00;96192.59;5110737;28;20028;-62
2022/01/21 04:49:41;;;;;;;1.90;1.40;;;;;;;-3.65;100.00;96194.88;5111803;28;20039;-62
2022/01/21 04:52:09;;;;;;;3.00;1.35;;;;;;;-3.71;100.00;96198.06;5099568;27;20036;-63
2022/01/21 04:54:38;;;;;;;4.35;1.52;;;;;;;-3.77;100.00;96203.09;5111402;28;20023;-62
2022/01/21 04:57:07;;;;;;;5.18;1.45;;;;;;;-3.73;100.00;96201.81;5109964;28;20475;-63
2022/01/21 04:59:34;;;;;;;7.63;1.77;;;;;;;-3.76;100.00;96205.56;5110544;27;20035;-62
2022/01/21 05:01:59;;;;;;;3.05;1.52;;;;;;;-3.81;100.00;96198.13;5110141;28;20024;-62
2022/01/21 05:04:25;;;;;;;4.82;1.65;;;;;;;-3.85;100.00;96209.06;5110854;27;20538;-63
2022/01/21 05:06:54;;;;;;;6.82;1.55;;;;;;;-3.94;100.00;96223.03;5110770;28;20054;-63
2022/01/21 05:09:40;;;;;;;2.97;1.10;;;;;;;-4.01;100.00;96222.81;5109879;28;20027;-63
2022/01/21 05:12:09;;;;;;;6.18;1.23;;;;;;;-4.07;100.00;96228.63;5109009;27;20031;-64
2022/01/21 05:17:30;;;;;;;4.00;1.08;;;;;;;-4.24;100.00;96232.00;5104792;27;20035;-63
2022/01/21 05:19:56;;;;;;;3.60;0.90;;;;;;;-4.28;100.00;96234.09;5130241;28;20019;-64
2022/01/21 05:22:21;;;;;;;2.72;1.08;;;;;;;-4.29;100.00;96242.91;5129642;27;20034;-64
2022/01/21 05:24:52;;;;;;;3.78;1.17;;;;;;;-4.35;100.00;96243.47;5119419;27;20027;-64
2022/01/21 05:27:17;;;;;;;4.30;1.20;;;;;;;-4.43;100.00;96239.00;5110730;28;20051;-64
2022/01/21 05:29:42;;;;;;;4.55;1.45;;;;;;;-4.48;100.00;96230.75;5122224;27;20074;-64
2022/01/21 05:32:11;;;;;;;3.28;0.98;;;;;;;-4.55;100.00;96234.91;5132525;27;20126;-64
2022/01/21 05:34:36;;;;;;;4.97;1.38;;;;;;;-4.55;100.00;96240.16;5128295;27;20520;-64
2022/01/21 05:37:02;;;;;;;2.85;1.40;;;;;;;-4.50;100.00;96244.94;5131270;27;20023;-65
2022/01/21 05:39:40;;;;;;;5.07;1.63;;;;;;;-4.51;100.00;96253.75;5131645;27;20069;-64
2022/01/21 05:42:09;;;;;;;4.60;1.33;;;;;;;-4.53;100.00;96250.47;5128450;27;20027;-65
2022/01/21 05:47:05;;;;;;;4.25;1.08;;;;;;;-4.61;100.00;96239.88;5130633;27;20107;-65
2022/01/21 05:49:32;;;;;;;3.55;1.40;;;;;;;-4.65;100.00;96239.34;5135551;27;20023;-64
2022/01/21 05:52:04;;;;;;;3.45;1.48;;;;;;;-4.69;100.00;96248.44;5134224;27;20043;-64
2022/01/21 05:54:37;;;;;;;3.83;1.30;;;;;;;-4.74;100.00;96250.66;5114780;27;20509;-64
2022/01/21 05:57:07;;;;;;;;;;;;;;;-4.80;100.00;96261.66;5115330;28;20427;-64
2022/01/21 05:59:33;;;;;;;3.28;1.40;;;;;;;-4.80;100.00;96257.25;5113932;27;19937;-64
2022/01/21 06:02:08;;;;;;;4.93;1.38;;;;;;;-4.75;100.00;96259.47;5114383;28;20062;-64
2022/01/21 06:04:38;;;;;;;4.15;1.60;;;;;;;-4.77;100.00;96264.84;5115379;27;20096;-64
2022/01/21 06:07:07;;;;;;;2.42;1.40;;;;;;;-4.82;100.00;96269.66;5133615;27;20027;-63
2022/01/21 06:09:32;;;;;;;8.68;1.83;;;;;;;-4.88;100.00;96269.41;5135202;27;20022;-63
2022/01/21 06:12:03;;;;;;;6.85;1.80;;;;;;;-4.93;100.00;96269.81;5133135;27;20027;-62
2022/01/21 06:14:29;;;;;;;4.30;1.65;;;;;;;-4.97;100.00;96273.69;5133469;27;20011;-64
2022/01/21 06:16:56;;;;;;;4.45;1.77;;;;;;;-5.02;100.00;96275.88;5133085;27;20030;-63
2022/01/21 06:19:24;;;;;;;7.22;2.25;;;;;;;-5.08;100.00;96290.31;5114354;28;20032;-62
2022/01/21 06:21:49;;;;;;;4.90;1.73;;;;;;;-5.11;100.00;96287.97;5114305;28;20026;-63
2022/01/21 06:24:17;;;;;;;5.22;1.48;;;;;;;-5.16;100.00;96289.38;5121817;27;20374;-62
2022/01/21 06:26:45;;;;;;;2.50;1.40;;;;;;;-5.26;100.00;96279.75;5113724;28;20107;-62
2022/01/21 06:29:10;;;;;;;4.50;1.95;;;;;;;-5.32;100.00;96288.16;5118522;27;20027;-62
2022/01/21 06:31:36;;;;;;;6.22;1.52;;;;;;;-5.33;100.00;96296.91;5127162;27;20027;-62
2022/01/21 06:34:04;;;;;;;5.30;1.33;;;;;;;-5.35;100.00;96308.47;5120340;27;20098;-60
2022/01/21 06:36:32;;;;;;;5.20;1.33;;;;;;;-5.38;100.00;96304.34;5113529;27;20484;-61
2022/01/21 06:38:57;;;;;;;4.15;1.60;;;;;;;-5.39;100.00;96305.31;5117079;27;20028;-61
2022/01/21 06:41:25;;;;;;;2.45;1.23;;;;;;;-5.43;100.00;96314.34;5112938;27;20035;-62
